createdAt,value
2019-05-14T00:05:21.552Z,101209.20
2019-05-14T00:11:26.315Z,101203.48
2019-05-14T00:17:31.916Z,101201.84
2019-05-14T00:23:36.612Z,101199.94
2019-05-14T00:29:41.825Z,101195.49
2019-05-14T00:35:46.578Z,101196.05
2019-05-14T00:41:51.434Z,101188.90
2019-05-14T00:47:56.092Z,101188.51
2019-05-14T00:54:01.670Z,101185.38
2019-05-14T01:00:07.164Z,101195.14
2019-05-14T01:06:11.702Z,101198.82
2019-05-14T01:12:16.232Z,101205.16
2019-05-14T01:18:21.932Z,101196.55
2019-05-14T01:24:26.725Z,101197.61
2019-05-14T01:30:31.991Z,101190.75
2019-05-14T01:36:36.841Z,101183.13
2019-05-14T01:42:41.805Z,101184.95
2019-05-14T01:48:46.528Z,101184.31
2019-05-14T01:54:51.619Z,101178.77
2019-05-14T02:00:56.416Z,101172.95
2019-05-14T02:07:02.194Z,101175.48
2019-05-14T02:13:07.847Z,101171.59
2019-05-14T02:19:12.805Z,101166.44
2019-05-14T02:25:17.668Z,101160.61
2019-05-14T02:31:22.478Z,101157.55
2019-05-14T02:37:29.894Z,101149.53
2019-05-14T02:43:33.762Z,101145.19
2019-05-14T02:49:39.849Z,101142.18
2019-05-14T02:55:44.826Z,101146.30
2019-05-14T03:01:50.377Z,101145.81
2019-05-14T03:07:55.355Z,101143.38
2019-05-14T03:14:00.435Z,101142.64
2019-05-14T03:20:09.179Z,101147.81
2019-05-14T03:26:14.112Z,101144.94
2019-05-14T03:32:22.939Z,101147.64
2019-05-14T03:38:29.612Z,101144.84
2019-05-14T03:44:35.632Z,101148.63
2019-05-14T03:50:41.359Z,101144.84
2019-05-14T03:56:49.354Z,101147.91
2019-05-14T04:02:53.194Z,101157.27
2019-05-14T04:09:00.844Z,101158.27
2019-05-14T04:15:09.802Z,101147.45
2019-05-14T04:21:20.266Z,101143.20
2019-05-14T04:27:25.357Z,101144.92
2019-05-14T04:33:30.668Z,101148.82
2019-05-14T04:39:39.556Z,101153.11
2019-05-14T04:45:43.983Z,101154.32
2019-05-14T04:51:50.318Z,101143.09
2019-05-14T04:57:55.444Z,101137.38
2019-05-14T05:04:00.281Z,101137.59
2019-05-14T05:10:10.177Z,101140.15
2019-05-14T05:16:18.921Z,101149.02
2019-05-14T05:22:22.543Z,101142.98
2019-05-14T05:28:28.305Z,101155.01
2019-05-14T05:34:33.124Z,101153.91
2019-05-14T05:40:39.139Z,101147.42
2019-05-14T05:46:43.880Z,101146.89
2019-05-14T05:52:49.871Z,101143.75
2019-05-14T05:58:54.836Z,101154.25
2019-05-14T06:04:59.458Z,101147.20
2019-05-14T06:11:04.096Z,101152.98
2019-05-14T06:17:08.798Z,101144.40
2019-05-14T06:23:13.350Z,101146.03
2019-05-14T06:29:18.666Z,101141.55
2019-05-14T06:35:23.329Z,101137.70
2019-05-14T06:41:28.493Z,101132.84
2019-05-14T06:47:33.161Z,101127.73
2019-05-14T06:53:39.247Z,101122.29
2019-05-14T06:59:44.047Z,101119.82
2019-05-14T07:05:51.572Z,101117.55
2019-05-14T07:11:58.418Z,101113.97
2019-05-14T07:18:02.499Z,101108.20
2019-05-14T07:24:08.728Z,101113.80
2019-05-14T07:30:14.022Z,101114.18
2019-05-14T07:36:19.055Z,101110.85
2019-05-14T07:42:23.837Z,101102.78
2019-05-14T07:48:28.912Z,101096.89
2019-05-14T07:54:33.519Z,101092.25
2019-05-14T08:00:40.204Z,101098.12
2019-05-14T08:06:44.605Z,101084.95
2019-05-14T08:12:49.157Z,101093.27
2019-05-14T08:18:53.786Z,101089.05
2019-05-14T08:24:58.341Z,101091.06
2019-05-14T08:31:02.961Z,101084.37
2019-05-14T08:37:08.226Z,101089.53
2019-05-14T08:43:13.036Z,101072.93
2019-05-14T08:49:20.591Z,101074.63
2019-05-14T08:55:25.573Z,101069.60
2019-05-14T09:01:30.323Z,101071.79
2019-05-14T09:07:40.091Z,101049.77
2019-05-14T09:13:49.033Z,101057.48
2019-05-14T09:20:02.398Z,101048.42
2019-05-14T09:26:01.356Z,101039.34
2019-05-14T09:32:06.255Z,101025.08
2019-05-14T09:38:10.943Z,101020.60
2019-05-14T09:44:15.667Z,101018.53
2019-05-14T09:50:23.320Z,101029.10
2019-05-14T09:56:30.823Z,101012.52
2019-05-14T10:02:38.979Z,101006.50
2019-05-14T10:08:42.744Z,100993.93
2019-05-14T10:14:50.123Z,101012.99
2019-05-14T10:20:55.755Z,101000.77
2019-05-14T10:27:01.869Z,100988.58
2019-05-14T10:33:14.120Z,100982.55
2019-05-14T10:39:13.670Z,100992.36
2019-05-14T10:45:18.814Z,100989.22
2019-05-14T10:51:23.670Z,100975.94
2019-05-14T10:57:29.029Z,100976.67
2019-05-14T11:03:33.698Z,100976.98
2019-05-14T11:09:38.296Z,100976.33
2019-05-14T11:15:51.337Z,100956.34
2019-05-14T11:21:57.941Z,100939.48
2019-05-14T11:28:02.230Z,100945.36
2019-05-14T11:34:08.313Z,100947.30
2019-05-14T11:40:13.442Z,100953.34
2019-05-14T11:46:33.279Z,100940.47
2019-05-14T11:52:28.674Z,100924.52
2019-05-14T11:58:33.543Z,100910.52
2019-05-14T12:04:39.153Z,100898.13
2019-05-14T12:10:44.021Z,100903.69
2019-05-14T12:16:53.453Z,100892.30
2019-05-14T12:23:00.890Z,100881.97
2019-05-14T12:29:05.575Z,100876.50
2019-05-14T12:35:10.211Z,100870.03
2019-05-14T12:41:14.770Z,100853.47
2019-05-14T12:47:19.362Z,100849.92
2019-05-14T12:53:23.920Z,100850.77
2019-05-14T12:59:28.728Z,100850.33
2019-05-14T13:05:33.348Z,100841.93
2019-05-14T13:11:41.315Z,100831.56
2019-05-14T13:17:48.385Z,100849.30
2019-05-14T13:23:53.245Z,100838.17
2019-05-14T13:29:59.198Z,100826.22
2019-05-14T13:36:04.109Z,100820.16
2019-05-14T13:42:11.851Z,100818.12
2019-05-14T13:48:15.130Z,100814.27
2019-05-14T13:54:19.717Z,100819.16
2019-05-14T14:00:24.703Z,100807.30
2019-05-14T14:06:29.593Z,100797.55
2019-05-14T14:12:34.232Z,100790.66
2019-05-14T14:18:39.498Z,100773.78
2019-05-14T14:24:44.329Z,100764.55
2019-05-14T14:30:49.266Z,100760.61
2019-05-14T14:36:55.203Z,100760.12
2019-05-14T14:43:00.165Z,100748.82
2019-05-14T14:49:04.763Z,100742.97
2019-05-14T14:55:09.648Z,100738.45
2019-05-14T15:01:14.305Z,100723.02
2019-05-14T15:07:18.872Z,100729.52
2019-05-14T15:13:24.656Z,100705.56
2019-05-14T15:19:29.887Z,100701.14
2019-05-14T15:25:34.585Z,100698.37
2019-05-14T15:31:39.206Z,100705.63
2019-05-14T15:37:43.840Z,100694.23
2019-05-14T15:43:48.416Z,100690.67
2019-05-14T15:49:53.054Z,100685.66
2019-05-14T15:55:57.605Z,100684.23
2019-05-14T16:02:02.247Z,100690.92
2019-05-14T16:08:06.839Z,100689.46
2019-05-14T16:14:11.377Z,100679.41
2019-05-14T16:20:18.716Z,100670.63
2019-05-14T16:26:22.496Z,100664.39
2019-05-14T16:32:28.472Z,100655.24
2019-05-14T16:38:33.289Z,100657.08
2019-05-14T16:44:39.150Z,100673.34
2019-05-14T16:50:43.909Z,100665.84
2019-05-14T16:56:48.563Z,100658.30
2019-05-14T17:02:53.171Z,100659.81
2019-05-14T17:08:59.469Z,100660.70
2019-05-14T17:15:04.780Z,100654.76
2019-05-14T17:21:09.439Z,100654.44
2019-05-14T17:27:14.118Z,100661.39
2019-05-14T17:33:18.704Z,100654.94
2019-05-14T17:39:23.255Z,100655.77
2019-05-14T17:45:28.542Z,100656.63
2019-05-14T17:51:33.214Z,100646.78
2019-05-14T17:57:44.946Z,100655.27
2019-05-14T18:03:44.094Z,100651.03
2019-05-14T18:09:48.719Z,100647.94
2019-05-14T18:15:53.342Z,100654.63
2019-05-14T18:21:59.274Z,100646.66
2019-05-14T18:28:04.145Z,100644.72
2019-05-14T18:34:08.779Z,100648.55
2019-05-14T18:40:13.454Z,100644.16
2019-05-14T18:46:19.248Z,100648.83
2019-05-14T18:52:23.993Z,100650.15
2019-05-14T18:58:29.337Z,100651.13
2019-05-14T19:04:34.265Z,100654.70
2019-05-14T19:10:39.173Z,100659.84
2019-05-14T19:16:43.867Z,100656.35
2019-05-14T19:22:49.166Z,100661.04
2019-05-14T19:28:53.974Z,100656.45
2019-05-14T19:34:58.520Z,100656.67
2019-05-14T19:41:03.278Z,100658.77
2019-05-14T19:47:07.838Z,100655.98
2019-05-14T19:53:12.509Z,100657.97
2019-05-14T19:59:18.333Z,100660.56
2019-05-14T20:05:23.050Z,100665.67
2019-05-14T20:11:28.917Z,100664.50
2019-05-14T20:17:33.789Z,100669.58
2019-05-14T20:23:38.833Z,100671.01
2019-05-14T20:29:43.489Z,100669.11
2019-05-14T20:35:48.748Z,100667.48
2019-05-14T20:41:53.530Z,100669.22
2019-05-14T20:47:58.691Z,100662.68
2019-05-14T20:54:03.371Z,100662.75
2019-05-14T21:00:11.345Z,100655.30
2019-05-14T21:06:15.465Z,100657.28
2019-05-14T21:12:20.038Z,100656.78
2019-05-14T21:18:34.730Z,100645.17
2019-05-14T21:24:30.993Z,100644.63
2019-05-14T21:30:35.572Z,100649.68
2019-05-14T21:36:41.776Z,100640.92
2019-05-14T21:42:48.610Z,100641.99
2019-05-14T21:48:52.668Z,100636.52
2019-05-14T21:54:58.657Z,100634.84
2019-05-14T22:01:04.214Z,100631.88
2019-05-14T22:07:09.134Z,100633.28
2019-05-14T22:13:13.958Z,100632.02
2019-05-14T22:19:19.077Z,100634.38
2019-05-14T22:25:23.810Z,100637.77
2019-05-14T22:31:29.070Z,100641.39
2019-05-14T22:37:33.811Z,100633.91
2019-05-14T22:43:38.506Z,100633.96
2019-05-14T22:49:43.130Z,100629.76
2019-05-14T22:55:49.096Z,100628.36
2019-05-14T23:01:54.932Z,100624.84
2019-05-14T23:07:59.517Z,100625.27
2019-05-14T23:14:04.140Z,100623.64
2019-05-14T23:20:10.031Z,100610.22
2019-05-14T23:26:14.608Z,100616.77
2019-05-14T23:32:19.309Z,100613.59
2019-05-14T23:38:24.549Z,100617.17
2019-05-14T23:44:29.419Z,100604.72
2019-05-14T23:50:34.049Z,100609.16
2019-05-14T23:56:38.736Z,100605.34
